Мир виртуальной авиации

Полеты на авиасимуляторах
...

Аэропорт ULLI

  METAR И TAF ИНФОРМАЦИЯ
METAR FOR ULLI
ADDS - METARS form results

(0338 UTC 13 September 2022)
Data provider http://aviationweather.gov/metar/data/
 
METAR text: ULLI 130330Z 11002MPS 080V150 CAVOK 10/08 Q1015 R10L/090060 NOSIG
Conditions at: ULLI (ST PETERSBURG , RU) observed 0330 UTC 13 September 2022
Temperature: 10.0°C (50°F)
Dewpoint: 8.0°C (46°F) [RH = 87%]
Pressure (altimeter): 29.97 inches Hg (1015.0 mb)
Winds: from the ESE (110 degrees) at 5 MPH (4 knots; 2.1 m/s)
Visibility: 6 or more miles (10+ km)
Ceiling: ceiling and visibility are OK
Clouds: unknown
Weather: no significant weather observed at this time

METAR text: ULLI 130300Z 09002MPS 060V130 CAVOK 10/07 Q1015 R10L/090060 NOSIG
Conditions at: ULLI (ST PETERSBURG , RU) observed 0300 UTC 13 September 2022
Temperature: 10.0°C (50°F)
Dewpoint: 7.0°C (45°F) [RH = 82%]
Pressure (altimeter): 29.97 inches Hg (1015.0 mb)
Winds: from the E (90 degrees) at 5 MPH (4 knots; 2.1 m/s)
Visibility: 6 or more miles (10+ km)
Ceiling: ceiling and visibility are OK
Clouds: unknown
Weather: no significant weather observed at this time

Forecast for: ULLI (ST PETERSBURG , RU)
Text: TAF ULLI 130150Z 1303/1403 14003MPS 9999 SCT030
Forecast period: 0300 UTC 13 September 2022 to 0300 UTC 14 September 2022
Forecast type: FROM: standard forecast or significant change
Winds: from the SE (140 degrees) at 7 MPH (6 knots; 3.1 m/s)
Visibility: 6 or more miles (10+ km)
Ceiling: at least 12,000 feet AGL
Clouds: scattered clouds at 3000 feet AGL
Weather: no significant weather forecast for this period
Text: TEMPO 1303/1304 1500 MIFG BR
Forecast period: 0300 to 0400 UTC 13 September 2022
Forecast type: TEMPORARY: The following changes expected for less than half the time period
Visibility: 0.93 miles (1.50 km)
Ceiling: unknown
Clouds: missing
Weather: MIFG BR  (shallow fog, mist)

  КАРТА АЭРОПОРТ
  ИНФОРМАЦИЯ О ВПП
ВПП 10L Длина ВПП 11146 ft Ширина ВПП 197 ft
Высота ВПП 59 ft Порог смещения ВПП 0 ft Курс ВПП 106
ВПП 28R Длина ВПП 11146 ft Ширина ВПП 197 ft
Высота ВПП 66 ft Порог смещения ВПП 0 ft Курс ВПП 286
ВПП 10R Длина ВПП 12402 ft Ширина ВПП 197 ft
Высота ВПП 66 ft Порог смещения ВПП 0 ft Курс ВПП 106
ВПП 28L Длина ВПП 12402 ft Ширина ВПП 197 ft
Высота ВПП 79 ft Порог смещения ВПП 0 ft Курс ВПП 286
  ЧАСТОТА АЭРОПОРТА
Тип APP Название PETERBURG Частота 129.8 MHZ
Тип ATIS Название ATIS Частота 127.3 MHZ
Тип GND Название TAXIING Частота 121.7 MHZ
Тип RDR Название KRUG Частота 120.3 MHZ
Тип TWR Название TWR Частота 118.1 MHZ
  НАВИГАЦИОННЫЕ СРЕДСТВА AIDS
Тип NDB Название Pulkovo Частота 342 KHZ
Тип NDB Название Pulkovo Частота 525 KHZ
Тип NDB Название Pulkovo Частота 277 KHZ
Тип NDB Название Pulkovo Частота 303 KHZ
Тип VOR-DME Название Sankt-Peterburg Частота 113400 KHZ